Time;durP1;ratioP1;P1;durP2;ratioP2;P2;SDS_P1;SDS_P2;PMS_P1;PMS_P2;Temp;Humidity;BMP_temperature;BMP_pressure;BME280_temperature;BME280_humidity;BME280_pressure;Samples;Min_cycle;Max_cycle;Signal;HPM_P1;HPM_P2
2023/05/01 00:02:11;;;;;;;10.43;7.80;;;10.10;99.90;;;;;;5078684;28;20561;-67
2023/05/01 00:04:39;;;;;;;10.50;6.60;;;10.10;99.90;;;;;;5078901;28;20454;-67
2023/05/01 00:07:05;;;;;;;10.53;6.83;;;10.10;99.90;;;;;;5078486;28;20464;-67
2023/05/01 00:09:32;;;;;;;9.63;6.87;;;10.10;99.90;;;;;;5078537;28;20462;-67
2023/05/01 00:12:01;;;;;;;7.27;6.00;;;10.00;99.90;;;;;;5080886;28;20460;-67
2023/05/01 00:14:28;;;;;;;10.30;6.90;;;10.00;99.90;;;;;;5079064;28;20457;-68
2023/05/01 00:16:55;;;;;;;8.13;6.33;;;9.90;99.90;;;;;;5078143;28;20461;-68
2023/05/01 00:19:22;;;;;;;8.13;6.63;;;9.80;99.90;;;;;;5078730;28;20842;-68
2023/05/01 00:21:51;;;;;;;7.37;6.43;;;9.80;99.90;;;;;;5078926;28;20487;-68
2023/05/01 00:24:18;;;;;;;10.20;6.70;;;9.80;99.90;;;;;;5078965;28;20482;-68
2023/05/01 00:26:45;;;;;;;7.20;6.50;;;9.80;99.90;;;;;;5078841;28;20482;-68
2023/05/01 00:29:12;;;;;;;8.70;6.93;;;9.90;99.90;;;;;;5079250;28;20458;-69
2023/05/01 00:31:41;;;;;;;10.27;6.33;;;9.90;99.90;;;;;;5079140;28;20454;-68
2023/05/01 00:34:07;;;;;;;10.47;6.57;;;9.90;99.90;;;;;;5079468;28;20758;-68
2023/05/01 00:36:34;;;;;;;9.23;6.67;;;9.90;99.90;;;;;;5078579;28;20454;-68
2023/05/01 00:39:03;;;;;;;9.73;6.30;;;10.00;99.90;;;;;;5079489;28;20520;-68
2023/05/01 00:41:30;;;;;;;8.00;5.90;;;10.00;99.90;;;;;;5080841;28;20464;-69
2023/05/01 00:43:57;;;;;;;10.83;7.73;;;10.00;99.90;;;;;;5080600;28;20512;-69
2023/05/01 00:46:24;;;;;;;8.67;5.87;;;10.00;99.90;;;;;;5080819;28;20541;-69
2023/05/01 00:48:52;;;;;;;8.87;5.53;;;9.90;99.90;;;;;;5080288;28;20465;-68
2023/05/01 00:51:19;;;;;;;9.40;5.37;;;9.80;99.90;;;;;;5079120;28;20454;-69
2023/05/01 00:53:46;;;;;;;7.67;5.27;;;9.80;99.90;;;;;;5078011;28;20781;-68
2023/05/01 00:56:15;;;;;;;6.50;5.63;;;9.80;99.90;;;;;;5078087;28;20949;-68
2023/05/01 00:58:42;;;;;;;12.73;5.93;;;9.70;99.90;;;;;;5078290;28;20760;-69
2023/05/01 01:01:09;;;;;;;9.00;5.70;;;9.70;99.90;;;;;;5078183;28;20550;-68
2023/05/01 01:03:36;;;;;;;9.10;5.30;;;9.80;99.90;;;;;;5077993;28;20474;-68
2023/05/01 01:06:09;;;;;;;9.57;5.37;;;9.80;99.90;;;;;;5078202;28;20458;-68
2023/05/01 01:08:42;;;;;;;9.20;5.73;;;9.80;99.90;;;;;;5078436;28;20446;-68
2023/05/01 01:11:20;;;;;;;8.57;5.63;;;9.70;99.90;;;;;;5077774;28;20464;-68
2023/05/01 01:13:55;;;;;;;7.67;5.47;;;9.50;99.90;;;;;;5079004;28;20457;-68
2023/05/01 01:16:29;;;;;;;6.93;5.43;;;9.50;99.90;;;;;;5078435;28;20553;-67
2023/05/01 01:19:01;;;;;;;8.23;5.67;;;9.50;99.90;;;;;;5078451;28;20453;-68
2023/05/01 01:21:31;;;;;;;6.63;5.10;;;9.50;99.90;;;;;;5078105;28;20506;-67
2023/05/01 01:24:35;;;;;;;7.80;5.17;;;9.40;99.90;;;;;;5078569;28;20478;-68
2023/05/01 01:27:28;;;;;;;9.17;5.13;;;9.50;99.90;;;;;;5020668;28;20543;-68
2023/05/01 01:30:16;;;;;;;6.87;5.37;;;9.40;99.90;;;;;;5076004;28;20526;-67
2023/05/01 01:33:25;;;;;;;9.37;5.30;;;9.50;99.90;;;;;;5079992;28;20450;-68
2023/05/01 01:35:57;;;;;;;7.47;6.10;;;9.40;99.90;;;;;;5078363;28;20511;-67
2023/05/01 01:38:34;;;;;;;9.10;6.07;;;9.30;99.90;;;;;;5077555;28;20946;-67
2023/05/01 01:41:08;;;;;;;9.10;5.83;;;9.30;99.90;;;;;;5078208;28;20445;-68
2023/05/01 01:43:40;;;;;;;7.53;5.93;;;9.30;99.90;;;;;;5078177;28;20869;-69
2023/05/01 01:46:08;;;;;;;6.37;5.77;;;9.30;99.90;;;;;;5078037;28;20453;-68
2023/05/01 01:48:41;;;;;;;6.87;5.30;;;9.30;99.90;;;;;;5077647;28;20522;-68
2023/05/01 01:51:14;;;;;;;7.67;5.13;;;9.20;99.90;;;;;;5079642;28;20508;-67
2023/05/01 01:53:44;;;;;;;6.23;5.47;;;9.20;99.90;;;;;;5079694;28;20431;-68
2023/05/01 01:56:12;;;;;;;10.20;6.83;;;9.30;99.90;;;;;;5079456;28;20461;-68
2023/05/01 01:58:40;;;;;;;8.30;5.40;;;9.20;99.90;;;;;;5077327;28;20906;-68
2023/05/01 02:01:08;;;;;;;7.60;5.90;;;9.20;99.90;;;;;;5077168;28;20458;-69
2023/05/01 02:03:37;;;;;;;8.73;5.43;;;9.10;99.90;;;;;;5077166;28;20485;-68
2023/05/01 02:06:06;;;;;;;9.47;6.47;;;9.10;99.90;;;;;;5077201;28;20555;-68
2023/05/01 02:08:36;;;;;;;7.97;6.43;;;9.20;99.90;;;;;;5075198;28;20783;-67
2023/05/01 02:11:04;;;;;;;10.80;5.77;;;9.20;99.90;;;;;;5075323;28;20454;-67
2023/05/01 02:13:33;;;;;;;9.20;6.10;;;9.20;99.90;;;;;;5074852;28;20493;-67
2023/05/01 02:16:02;;;;;;;7.57;5.60;;;9.20;99.90;;;;;;5074626;28;20794;-67
2023/05/01 02:18:31;;;;;;;7.67;6.20;;;9.20;99.90;;;;;;5074281;28;20457;-67
2023/05/01 02:20:59;;;;;;;7.80;5.53;;;9.20;99.90;;;;;;5077415;28;20911;-66
2023/05/01 02:23:28;;;;;;;7.37;5.33;;;9.20;99.90;;;;;;5078004;28;20505;-66
2023/05/01 02:25:58;;;;;;;9.70;5.77;;;9.20;99.90;;;;;;5077797;28;20530;-66
2023/05/01 02:28:28;;;;;;;9.00;5.53;;;9.20;99.90;;;;;;5077312;28;20443;-66
2023/05/01 02:30:56;;;;;;;9.27;6.70;;;9.20;99.90;;;;;;5078078;28;20522;-66
2023/05/01 02:33:23;;;;;;;8.80;5.67;;;9.10;99.90;;;;;;5077407;28;20533;-67
2023/05/01 02:35:49;;;;;;;7.93;6.00;;;9.10;99.90;;;;;;5076693;28;20540;-68
2023/05/01 02:38:17;;;;;;;8.50;5.00;;;9.10;99.90;;;;;;5076720;28;20557;-68
2023/05/01 02:40:46;;;;;;;9.37;6.80;;;9.10;99.90;;;;;;5076480;28;20470;-67
2023/05/01 02:43:18;;;;;;;8.37;5.77;;;9.10;99.90;;;;;;5076581;28;20464;-67
2023/05/01 02:45:46;;;;;;;8.30;6.40;;;9.00;99.90;;;;;;5076571;28;20448;-68
2023/05/01 02:48:16;;;;;;;8.60;5.17;;;8.90;99.90;;;;;;5075910;28;20454;-67
2023/05/01 02:50:44;;;;;;;9.60;4.80;;;9.00;99.90;;;;;;5076085;28;20442;-68
2023/05/01 02:53:14;;;;;;;9.03;7.90;;;8.90;99.90;;;;;;5076530;28;20548;-67
2023/05/01 02:55:42;;;;;;;10.90;5.27;;;8.80;99.90;;;;;;5076634;28;20458;-67
2023/05/01 02:58:16;;;;;;;6.77;5.73;;;8.80;99.90;;;;;;5077575;28;20458;-68
2023/05/01 03:00:43;;;;;;;8.60;5.97;;;8.90;99.90;;;;;;5080981;28;20484;-68
2023/05/01 03:03:10;;;;;;;9.20;5.80;;;8.90;99.90;;;;;;5080062;28;20936;-68
2023/05/01 03:05:38;;;;;;;8.60;6.17;;;8.90;99.90;;;;;;5080527;28;20553;-67
2023/05/01 03:08:05;;;;;;;11.10;6.10;;;8.90;99.90;;;;;;5079771;28;20934;-68
2023/05/01 03:10:32;;;;;;;7.13;5.67;;;8.80;99.90;;;;;;5080801;28;20457;-68
2023/05/01 03:12:59;;;;;;;6.77;5.20;;;8.90;99.90;;;;;;5082086;28;20780;-68
2023/05/01 03:15:28;;;;;;;6.93;5.37;;;8.80;99.90;;;;;;5079776;28;20450;-68
2023/05/01 03:17:54;;;;;;;10.83;6.53;;;8.80;99.90;;;;;;5079962;28;20554;-68
2023/05/01 03:20:21;;;;;;;9.20;5.70;;;8.70;99.90;;;;;;5079174;28;20464;-68
2023/05/01 03:22:48;;;;;;;7.57;5.43;;;8.60;99.90;;;;;;5080062;28;20458;-67
2023/05/01 03:25:15;;;;;;;9.47;6.10;;;8.50;99.90;;;;;;5080361;28;20478;-68
2023/05/01 03:27:42;;;;;;;7.00;5.50;;;8.50;99.90;;;;;;5080043;28;20494;-68
2023/05/01 03:30:10;;;;;;;6.97;5.37;;;8.50;99.90;;;;;;5079530;28;20458;-67
2023/05/01 03:32:38;;;;;;;6.80;5.60;;;8.50;99.90;;;;;;5079934;28;20454;-67
2023/05/01 03:35:06;;;;;;;8.17;5.80;;;8.60;99.90;;;;;;5079726;28;20507;-68
2023/05/01 03:37:33;;;;;;;7.60;5.90;;;8.60;99.90;;;;;;5079702;28;20507;-68
2023/05/01 03:40:00;;;;;;;6.70;5.60;;;8.50;99.90;;;;;;5079529;28;20460;-68
2023/05/01 03:42:27;;;;;;;6.70;5.20;;;8.50;99.90;;;;;;5079269;28;20838;-69
2023/05/01 03:44:54;;;;;;;9.13;5.67;;;8.60;99.90;;;;;;5079914;28;20482;-68
2023/05/01 03:47:22;;;;;;;7.93;5.23;;;8.60;99.90;;;;;;5079818;28;20484;-69
2023/05/01 03:49:50;;;;;;;8.90;5.97;;;8.60;99.90;;;;;;5079848;28;20752;-68
2023/05/01 03:52:17;;;;;;;11.03;5.70;;;8.50;99.90;;;;;;5079295;28;20458;-69
2023/05/01 03:54:44;;;;;;;9.70;5.93;;;8.60;99.90;;;;;;5079500;28;20450;-68
2023/05/01 03:57:11;;;;;;;14.53;5.67;;;8.60;99.90;;;;;;5078956;28;20601;-69
2023/05/01 03:59:38;;;;;;;9.07;5.83;;;8.50;99.90;;;;;;5078055;28;20457;-68
2023/05/01 04:02:05;;;;;;;7.13;5.33;;;8.40;99.90;;;;;;5079086;28;20504;-68
2023/05/01 04:04:32;;;;;;;8.40;5.37;;;8.30;99.90;;;;;;5079887;28;20492;-68
2023/05/01 04:07:00;;;;;;;9.13;5.80;;;8.30;99.90;;;;;;5079012;28;20516;-67
2023/05/01 04:09:28;;;;;;;6.00;4.73;;;8.20;99.90;;;;;;5079099;28;20771;-68
2023/05/01 04:11:55;;;;;;;7.70;5.70;;;8.20;99.90;;;;;;5079036;28;20517;-68
2023/05/01 04:14:22;;;;;;;9.00;5.70;;;8.10;99.90;;;;;;5078740;28;20446;-67
2023/05/01 04:16:49;;;;;;;8.10;5.57;;;8.10;99.90;;;;;;5078996;28;20843;-67
2023/05/01 04:19:16;;;;;;;7.57;5.20;;;8.10;99.90;;;;;;5079249;28;20462;-68
2023/05/01 04:21:43;;;;;;;8.77;5.30;;;8.20;99.90;;;;;;5079187;28;20454;-68
2023/05/01 04:24:11;;;;;;;8.10;5.27;;;8.30;99.90;;;;;;5078713;28;20958;-67
2023/05/01 04:26:38;;;;;;;9.17;6.10;;;8.10;99.90;;;;;;5079021;28;20450;-68
2023/05/01 04:29:05;;;;;;;9.50;5.33;;;8.20;99.90;;;;;;5078879;28;20533;-68
2023/05/01 04:31:33;;;;;;;8.20;5.47;;;8.10;99.90;;;;;;5078870;28;20962;-68
2023/05/01 04:34:00;;;;;;;6.70;5.20;;;8.10;99.90;;;;;;5079890;28;20459;-68
2023/05/01 04:36:28;;;;;;;9.57;5.50;;;8.20;99.90;;;;;;5078979;28;20929;-68
2023/05/01 04:38:55;;;;;;;7.60;4.70;;;8.30;99.90;;;;;;5078481;28;20971;-68
2023/05/01 04:41:23;;;;;;;5.90;5.30;;;8.40;99.90;;;;;;5079218;28;20467;-67
2023/05/01 04:43:50;;;;;;;8.17;5.27;;;8.50;99.90;;;;;;5079173;28;20927;-67
2023/05/01 04:46:17;;;;;;;9.90;5.70;;;8.60;99.90;;;;;;5081096;28;20465;-68
2023/05/01 04:48:44;;;;;;;6.40;4.97;;;8.60;99.90;;;;;;5078894;28;20482;-67
2023/05/01 04:51:11;;;;;;;9.20;5.30;;;8.70;99.90;;;;;;5079156;28;20519;-67
2023/05/01 04:53:38;;;;;;;6.53;5.03;;;8.80;99.90;;;;;;5079875;28;20466;-68
2023/05/01 04:56:05;;;;;;;9.70;5.37;;;8.80;99.90;;;;;;5079426;28;20458;-69
2023/05/01 04:58:34;;;;;;;7.40;5.10;;;8.80;99.90;;;;;;5078590;28;20460;-67
2023/05/01 05:01:00;;;;;;;7.47;5.33;;;8.90;99.90;;;;;;5079257;28;20458;-67
2023/05/01 05:03:27;;;;;;;8.03;4.90;;;8.90;99.90;;;;;;5083194;28;20450;-67
2023/05/01 05:05:54;;;;;;;11.10;5.90;;;9.00;99.90;;;;;;5084258;28;20584;-68
2023/05/01 05:08:21;;;;;;;6.07;5.00;;;9.00;99.90;;;;;;5083668;28;20454;-68
2023/05/01 05:10:48;;;;;;;7.53;4.60;;;9.00;99.90;;;;;;5080624;28;20490;-66
2023/05/01 05:13:15;;;;;;;8.70;5.93;;;9.00;99.90;;;;;;5081348;28;20500;-69
2023/05/01 05:15:43;;;;;;;6.33;5.00;;;9.00;99.90;;;;;;5080815;28;20531;-67
2023/05/01 05:18:10;;;;;;;7.67;5.37;;;9.00;99.90;;;;;;5080465;28;20464;-67
2023/05/01 05:20:39;;;;;;;8.20;4.90;;;8.90;99.90;;;;;;5080357;28;20455;-68
2023/05/01 05:23:06;;;;;;;5.60;4.53;;;8.90;99.90;;;;;;5080494;28;20465;-68
2023/05/01 05:25:32;;;;;;;7.47;4.97;;;9.00;99.90;;;;;;5080105;28;20494;-68
2023/05/01 05:28:00;;;;;;;5.73;5.13;;;9.00;99.90;;;;;;5078918;28;20482;-68
2023/05/01 05:30:27;;;;;;;7.13;5.87;;;9.10;99.90;;;;;;5078845;28;20929;-68
2023/05/01 05:32:56;;;;;;;5.93;4.97;;;9.10;99.90;;;;;;5080833;28;20458;-68
2023/05/01 05:35:23;;;;;;;5.87;4.60;;;9.20;99.90;;;;;;5081598;28;20456;-67
2023/05/01 05:37:50;;;;;;;8.10;5.50;;;9.20;99.90;;;;;;5081791;28;20450;-69
2023/05/01 05:40:18;;;;;;;12.10;5.50;;;9.20;99.90;;;;;;5081456;28;20438;-68
2023/05/01 05:42:45;;;;;;;6.80;5.30;;;9.30;99.90;;;;;;5080488;28;20461;-69
2023/05/01 05:45:11;;;;;;;5.20;4.70;;;9.20;99.90;;;;;;5080265;28;20565;-67
2023/05/01 05:47:39;;;;;;;7.20;5.20;;;9.10;99.90;;;;;;5081933;28;20468;-68
2023/05/01 05:50:08;;;;;;;7.67;5.37;;;9.00;99.90;;;;;;5080837;28;20453;-69
2023/05/01 05:52:35;;;;;;;6.30;5.23;;;9.10;99.90;;;;;;5081893;28;20454;-68
2023/05/01 05:55:02;;;;;;;8.47;4.70;;;9.20;99.90;;;;;;5081100;28;20450;-68
2023/05/01 05:57:29;;;;;;;6.83;4.93;;;9.10;99.90;;;;;;5081248;28;20450;-68
2023/05/01 05:59:56;;;;;;;6.80;5.07;;;9.10;99.90;;;;;;5080737;28;20542;-68
2023/05/01 06:02:22;;;;;;;10.50;4.70;;;8.90;99.90;;;;;;5080921;28;20468;-68
2023/05/01 06:04:49;;;;;;;9.30;4.97;;;9.00;99.90;;;;;;5082308;28;20491;-68
2023/05/01 06:07:17;;;;;;;8.70;4.77;;;9.10;99.90;;;;;;5081768;28;20458;-68
2023/05/01 06:09:44;;;;;;;6.23;5.00;;;9.20;99.90;;;;;;5082388;28;20489;-67
2023/05/01 06:12:11;;;;;;;7.53;5.20;;;9.20;99.90;;;;;;5081434;28;20545;-69
2023/05/01 06:14:38;;;;;;;5.80;3.90;;;9.20;99.90;;;;;;5081269;28;20450;-68
2023/05/01 06:17:05;;;;;;;8.00;5.80;;;9.30;99.90;;;;;;5081921;28;20552;-69
2023/05/01 06:19:32;;;;;;;10.70;5.13;;;9.40;99.90;;;;;;5080772;28;20553;-69
2023/05/01 06:21:59;;;;;;;7.07;4.83;;;9.40;99.90;;;;;;5081099;28;20525;-68
2023/05/01 06:24:27;;;;;;;8.97;4.50;;;9.40;99.90;;;;;;5080079;28;20550;-68
2023/05/01 06:26:55;;;;;;;5.87;4.10;;;9.50;99.90;;;;;;5080516;28;20454;-68
2023/05/01 06:29:22;;;;;;;5.93;4.20;;;9.60;99.90;;;;;;5081089;28;20532;-68
2023/05/01 06:31:48;;;;;;;6.23;4.67;;;9.70;99.90;;;;;;5081224;28;20469;-69
2023/05/01 06:34:16;;;;;;;6.50;4.53;;;9.80;99.90;;;;;;5082465;28;20464;-69
2023/05/01 06:36:42;;;;;;;6.23;4.20;;;9.90;99.90;;;;;;5086194;28;20458;-69
2023/05/01 06:39:10;;;;;;;5.13;4.00;;;10.00;99.90;;;;;;5083005;28;20478;-69
2023/05/01 06:41:38;;;;;;;5.43;4.10;;;10.10;99.90;;;;;;5083441;28;20465;-68
2023/05/01 06:44:05;;;;;;;8.37;4.97;;;10.20;99.90;;;;;;5082857;28;20482;-69
2023/05/01 06:46:32;;;;;;;6.67;4.50;;;10.30;99.90;;;;;;5082811;28;20852;-69
2023/05/01 06:48:59;;;;;;;6.53;3.90;;;10.40;99.90;;;;;;5082797;28;20736;-69
2023/05/01 06:51:26;;;;;;;5.67;4.00;;;10.50;99.90;;;;;;5083708;28;20453;-68
2023/05/01 06:53:53;;;;;;;6.50;3.73;;;10.50;99.90;;;;;;5084306;28;20487;-68
2023/05/01 06:56:20;;;;;;;7.33;4.57;;;10.50;99.90;;;;;;5084419;28;20631;-67
2023/05/01 06:58:48;;;;;;;10.47;5.30;;;10.50;99.90;;;;;;5084233;28;20454;-68
2023/05/01 07:01:17;;;;;;;10.03;4.03;;;10.60;99.90;;;;;;5083192;28;20512;-69
2023/05/01 07:03:45;;;;;;;8.40;4.50;;;10.70;99.90;;;;;;5082256;28;20523;-68
2023/05/01 07:06:12;;;;;;;7.10;4.50;;;10.90;99.90;;;;;;5082491;28;20478;-69
2023/05/01 07:08:39;;;;;;;5.43;4.63;;;11.00;99.90;;;;;;5083346;28;20466;-68
2023/05/01 07:11:06;;;;;;;5.93;3.93;;;11.10;99.90;;;;;;5084557;28;20454;-68
2023/05/01 07:13:33;;;;;;;6.83;4.30;;;11.30;99.90;;;;;;5084406;28;20575;-68
2023/05/01 07:16:02;;;;;;;4.97;4.10;;;11.40;99.90;;;;;;5081655;28;20450;-68
2023/05/01 07:18:28;;;;;;;4.90;4.10;;;11.50;99.90;;;;;;5081817;28;20464;-68
2023/05/01 07:20:55;;;;;;;6.27;3.90;;;11.60;99.90;;;;;;5081707;28;20473;-68
2023/05/01 07:23:24;;;;;;;9.30;4.80;;;11.70;99.90;;;;;;5082099;28;20825;-68
2023/05/01 07:25:51;;;;;;;5.30;3.50;;;11.80;99.90;;;;;;5081865;28;20525;-67
2023/05/01 07:28:19;;;;;;;7.50;4.30;;;11.80;99.90;;;;;;5081392;28;20465;-68
2023/05/01 07:30:46;;;;;;;5.17;3.80;;;12.00;99.90;;;;;;5081338;28;20458;-67
2023/05/01 07:33:15;;;;;;;6.30;3.83;;;12.10;99.90;;;;;;5080923;28;20458;-68
2023/05/01 07:35:42;;;;;;;7.00;4.33;;;12.20;99.90;;;;;;5080923;28;20818;-68
2023/05/01 07:38:08;;;;;;;5.93;3.97;;;12.40;99.90;;;;;;5081028;28;20561;-68
2023/05/01 07:40:35;;;;;;;8.23;4.50;;;12.50;99.90;;;;;;5080703;28;20485;-67
2023/05/01 07:43:03;;;;;;;5.47;3.40;;;12.70;99.90;;;;;;5081047;28;20964;-67
2023/05/01 07:45:30;;;;;;;4.67;3.27;;;12.90;99.90;;;;;;5080786;28;20532;-67
2023/05/01 07:47:57;;;;;;;4.40;3.10;;;13.10;99.80;;;;;;5081344;28;20961;-67
2023/05/01 07:50:25;;;;;;;8.17;4.27;;;13.20;98.90;;;;;;5081365;28;20500;-67
2023/05/01 07:52:52;;;;;;;7.40;3.73;;;13.30;96.80;;;;;;5082029;28;20481;-67
2023/05/01 07:55:21;;;;;;;6.27;4.10;;;13.40;96.60;;;;;;5081250;28;20541;-67
2023/05/01 07:57:48;;;;;;;3.87;3.40;;;13.40;94.40;;;;;;5080492;28;20461;-67
2023/05/01 08:00:16;;;;;;;5.60;4.17;;;13.50;94.40;;;;;;5080522;28;20450;-67
2023/05/01 08:02:43;;;;;;;5.60;3.93;;;13.50;92.70;;;;;;5080925;28;20511;-66
2023/05/01 08:05:10;;;;;;;6.10;3.47;;;13.50;92.10;;;;;;5081211;28;20514;-67
2023/05/01 08:07:38;;;;;;;5.17;3.57;;;13.40;91.60;;;;;;5080440;28;20549;-68
2023/05/01 08:10:06;;;;;;;8.80;3.30;;;13.50;91.80;;;;;;5080451;28;20819;-67
2023/05/01 08:12:33;;;;;;;4.37;3.43;;;13.50;91.50;;;;;;5080308;28;20489;-67
2023/05/01 08:15:00;;;;;;;5.30;3.73;;;13.60;92.10;;;;;;5081143;28;20454;-67
2023/05/01 08:17:27;;;;;;;5.87;2.87;;;13.70;90.10;;;;;;5081261;28;20454;-67
2023/05/01 08:19:55;;;;;;;5.53;3.60;;;13.70;91.50;;;;;;5081866;28;20463;-68
2023/05/01 08:22:22;;;;;;;3.70;2.97;;;13.90;89.70;;;;;;5082136;28;20454;-68
2023/05/01 08:24:50;;;;;;;3.97;3.57;;;14.00;88.00;;;;;;5082282;28;20541;-67
2023/05/01 08:27:17;;;;;;;6.10;3.53;;;14.00;86.30;;;;;;5082125;28;20458;-67
2023/05/01 08:29:44;;;;;;;7.03;3.40;;;14.10;84.50;;;;;;5080537;28;20833;-67
2023/05/01 08:32:11;;;;;;;4.97;3.23;;;14.10;81.70;;;;;;5080200;28;20454;-67
2023/05/01 08:34:38;;;;;;;4.80;3.27;;;14.20;81.40;;;;;;5080450;28;20915;-67
2023/05/01 08:37:05;;;;;;;8.43;4.00;;;14.30;81.70;;;;;;5079796;28;20451;-67
2023/05/01 08:39:31;;;;;;;5.10;3.20;;;14.40;79.00;;;;;;5079674;28;20513;-67
2023/05/01 08:42:00;;;;;;;5.00;3.10;;;14.40;78.50;;;;;;5080540;28;20454;-67
2023/05/01 08:44:27;;;;;;;6.27;3.83;;;14.50;78.20;;;;;;5081146;28;20468;-67
2023/05/01 08:47:05;;;;;;;6.93;3.93;;;14.60;79.50;;;;;;5079519;28;20482;-68
2023/05/01 08:49:34;;;;;;;7.00;3.23;;;14.70;77.10;;;;;;5079290;28;20542;-67
2023/05/01 08:52:02;;;;;;;4.90;3.20;;;14.80;72.90;;;;;;5077465;28;20930;-68
2023/05/01 08:54:31;;;;;;;4.47;3.50;;;14.80;72.00;;;;;;5077725;28;20466;-68
2023/05/01 08:57:03;;;;;;;4.27;2.80;;;14.90;70.60;;;;;;5078049;28;20461;-68
2023/05/01 08:59:31;;;;;;;3.77;2.60;;;14.90;71.60;;;;;;5078513;28;20443;-67
2023/05/01 09:02:03;;;;;;;3.93;2.90;;;15.00;68.80;;;;;;5078922;28;20450;-67
2023/05/01 09:04:32;;;;;;;5.23;2.53;;;15.10;64.70;;;;;;5079696;28;20876;-66
2023/05/01 09:07:00;;;;;;;6.23;3.57;;;15.10;64.20;;;;;;5079652;28;20582;-67
2023/05/01 09:09:27;;;;;;;7.50;3.50;;;15.10;63.80;;;;;;5079543;28;20462;-67
2023/05/01 09:11:56;;;;;;;4.67;2.90;;;15.10;61.10;;;;;;5079628;28;20464;-68
2023/05/01 09:14:24;;;;;;;6.03;2.57;;;15.20;60.70;;;;;;5081558;28;20464;-68
2023/05/01 09:16:51;;;;;;;4.00;2.70;;;15.20;60.30;;;;;;5081340;28;20554;-67
2023/05/01 09:19:18;;;;;;;6.90;2.83;;;15.30;61.60;;;;;;5080589;28;20454;-67
2023/05/01 09:21:45;;;;;;;4.07;3.07;;;15.40;59.30;;;;;;5081243;28;20554;-68
2023/05/01 09:24:12;;;;;;;4.63;3.23;;;15.50;58.50;;;;;;5081745;28;20459;-69
2023/05/01 09:26:40;;;;;;;4.33;2.53;;;15.40;56.20;;;;;;5083381;28;20525;-68
2023/05/01 09:29:09;;;;;;;6.80;2.70;;;15.50;57.30;;;;;;5082135;28;20454;-68
2023/05/01 09:31:37;;;;;;;5.33;3.10;;;15.50;56.40;;;;;;5083104;28;20454;-68
2023/05/01 09:34:05;;;;;;;4.20;2.50;;;15.40;56.10;;;;;;5081512;28;20497;-67
2023/05/01 09:36:33;;;;;;;5.33;2.30;;;15.50;55.50;;;;;;5081102;28;20450;-68
2023/05/01 09:39:01;;;;;;;4.00;2.70;;;15.60;54.90;;;;;;5080932;28;20520;-68
2023/05/01 09:41:30;;;;;;;3.97;2.57;;;15.60;55.90;;;;;;5080679;28;20462;-69
2023/05/01 09:43:58;;;;;;;5.57;3.43;;;15.70;55.90;;;;;;5079455;28;21090;-69
2023/05/01 09:46:27;;;;;;;5.87;2.73;;;15.90;56.40;;;;;;5079750;28;20553;-69
2023/05/01 09:48:57;;;;;;;3.53;2.50;;;16.00;55.10;;;;;;5079059;28;20451;-70
2023/05/01 09:51:26;;;;;;;10.00;3.47;;;16.10;55.10;;;;;;5079548;28;20472;-69
2023/05/01 09:53:55;;;;;;;4.57;3.17;;;16.20;54.40;;;;;;5079101;28;20576;-68
2023/05/01 09:56:22;;;;;;;5.37;3.23;;;16.30;54.60;;;;;;5079471;28;20458;-68
2023/05/01 09:58:51;;;;;;;6.70;2.73;;;16.40;53.10;;;;;;5079270;28;20454;-68
2023/05/01 10:01:18;;;;;;;4.13;2.93;;;16.40;53.60;;;;;;5078883;28;20501;-68
2023/05/01 10:03:45;;;;;;;7.00;3.00;;;16.50;54.20;;;;;;5077979;28;20468;-70
2023/05/01 10:06:27;;;;;;;4.63;2.67;;;16.60;53.30;;;;;;5078166;28;20958;-68
2023/05/01 10:08:54;;;;;;;4.63;3.10;;;16.60;53.20;;;;;;5078242;28;20474;-68
2023/05/01 10:11:22;;;;;;;4.50;3.13;;;16.70;54.30;;;;;;5077792;28;20545;-68
2023/05/01 10:14:06;;;;;;;5.90;2.90;;;16.80;53.10;;;;;;5078377;28;20463;-68
2023/05/01 10:16:35;;;;;;;7.07;3.33;;;16.70;51.70;;;;;;5081133;28;20477;-69
2023/05/01 10:19:03;;;;;;;4.70;3.33;;;16.70;52.50;;;;;;5081037;28;20549;-68
2023/05/01 10:21:32;;;;;;;6.87;3.20;;;16.60;52.00;;;;;;5081485;28;20565;-68
2023/05/01 10:24:00;;;;;;;7.63;3.60;;;16.50;52.20;;;;;;5080128;28;20461;-68
2023/05/01 10:26:28;;;;;;;6.23;3.70;;;16.50;53.00;;;;;;5079041;28;20521;-69
2023/05/01 10:28:57;;;;;;;8.83;3.60;;;16.60;52.80;;;;;;5079669;28;20896;-68
2023/05/01 10:31:25;;;;;;;7.07;3.40;;;16.60;52.60;;;;;;5079670;28;20464;-68
2023/05/01 10:33:52;;;;;;;6.80;3.50;;;16.70;53.40;;;;;;5079730;28;20469;-69
2023/05/01 10:36:22;;;;;;;6.87;4.40;;;16.80;53.00;;;;;;5079361;28;20454;-68
2023/05/01 10:38:51;;;;;;;4.80;3.77;;;16.90;52.50;;;;;;5078423;28;20572;-68
2023/05/01 10:41:56;;;;;;;7.27;4.00;;;17.00;51.40;;;;;;5079314;28;20462;-68
2023/05/01 10:44:25;;;;;;;4.70;3.07;;;17.10;50.80;;;;;;5078968;28;20446;-68
2023/05/01 10:46:52;;;;;;;6.40;3.77;;;17.20;51.40;;;;;;5077417;28;20589;-69
2023/05/01 10:49:20;;;;;;;6.57;3.17;;;17.40;50.60;;;;;;5078537;28;20465;-68
2023/05/01 10:52:00;;;;;;;5.77;3.80;;;17.50;50.30;;;;;;5077633;28;20454;-69
2023/05/01 10:54:29;;;;;;;6.13;3.90;;;17.50;51.10;;;;;;5077656;28;20842;-69
2023/05/01 10:56:58;;;;;;;5.67;3.83;;;17.70;49.00;;;;;;5077756;28;20454;-68
2023/05/01 10:59:26;;;;;;;5.60;3.57;;;17.70;48.30;;;;;;5078481;28;20468;-68
2023/05/01 11:01:54;;;;;;;4.90;3.70;;;17.70;48.00;;;;;;5074843;28;20553;-67
2023/05/01 11:04:49;;;;;;;9.67;3.47;;;17.70;48.40;;;;;;5074123;28;20527;-67
2023/05/01 11:07:17;;;;;;;4.27;3.13;;;17.70;48.70;;;;;;5073822;28;20466;-67
2023/05/01 11:09:48;;;;;;;8.57;4.07;;;17.80;48.90;;;;;;5074188;28;20812;-67
2023/05/01 11:12:15;;;;;;;7.37;4.20;;;18.10;49.60;;;;;;5074338;28;20870;-67
2023/05/01 11:15:03;;;;;;;4.80;3.40;;;18.30;47.90;;;;;;5073551;28;20553;-67
2023/05/01 11:17:49;;;;;;;3.83;3.43;;;18.70;47.50;;;;;;5074346;28;20454;-67
2023/05/01 11:20:46;;;;;;;5.27;3.10;;;19.60;46.10;;;;;;5075455;28;20919;-66
2023/05/01 11:23:20;;;;;;;4.93;3.40;;;20.40;45.30;;;;;;5075166;28;20454;-66
2023/05/01 11:25:49;;;;;;;5.40;4.00;;;20.90;44.60;;;;;;5077533;28;20502;-68
2023/05/01 11:28:21;;;;;;;5.03;3.57;;;21.10;42.50;;;;;;5077697;28;20907;-67
2023/05/01 11:30:48;;;;;;;7.50;3.47;;;21.00;39.70;;;;;;5077527;28;20961;-68
2023/05/01 11:33:24;;;;;;;5.30;3.50;;;20.90;38.50;;;;;;5077392;28;20844;-66
2023/05/01 11:36:00;;;;;;;9.70;3.30;;;20.80;38.30;;;;;;5077928;28;20470;-66
2023/05/01 11:38:27;;;;;;;4.17;3.20;;;21.10;37.40;;;;;;5077047;28;20761;-67
2023/05/01 11:41:00;;;;;;;4.00;3.10;;;21.40;36.00;;;;;;5077028;28;20458;-67
2023/05/01 11:43:27;;;;;;;6.13;3.10;;;21.50;35.60;;;;;;5077819;28;20465;-67
2023/05/01 11:46:02;;;;;;;4.53;3.93;;;21.30;34.30;;;;;;5077023;28;20458;-67
2023/05/01 11:48:30;;;;;;;6.30;3.73;;;21.10;35.20;;;;;;5077097;28;20442;-67
2023/05/01 11:50:57;;;;;;;5.30;3.60;;;21.10;34.70;;;;;;5077415;28;20469;-67
2023/05/01 11:53:24;;;;;;;5.57;3.57;;;21.80;34.60;;;;;;5076957;28;20512;-67
2023/05/01 11:55:51;;;;;;;4.80;3.50;;;22.90;33.10;;;;;;5077261;28;20454;-67
2023/05/01 11:58:31;;;;;;;5.67;3.53;;;23.80;32.00;;;;;;5077159;28;20462;-67
2023/05/01 12:00:58;;;;;;;5.70;3.70;;;24.40;30.30;;;;;;5077142;28;20529;-67
2023/05/01 12:03:25;;;;;;;4.60;4.00;;;25.20;30.00;;;;;;5076773;28;20533;-67
2023/05/01 12:05:53;;;;;;;3.97;3.27;;;26.20;28.50;;;;;;5076571;28;20454;-67
2023/05/01 12:08:21;;;;;;;6.43;3.63;;;27.60;28.30;;;;;;5076775;28;20464;-67
2023/05/01 12:10:51;;;;;;;4.93;3.47;;;28.20;25.10;;;;;;5076944;28;20458;-67
2023/05/01 12:13:20;;;;;;;5.73;3.90;;;28.70;23.90;;;;;;5077068;28;20462;-67
2023/05/01 12:15:48;;;;;;;5.33;3.83;;;28.60;22.70;;;;;;5076266;28;20458;-67
2023/05/01 12:18:16;;;;;;;10.70;3.60;;;28.40;21.10;;;;;;5076712;28;20775;-68
2023/05/01 12:20:46;;;;;;;5.53;4.00;;;28.40;22.40;;;;;;5076569;28;20454;-68
2023/05/01 12:23:14;;;;;;;6.13;3.60;;;27.80;20.90;;;;;;5076330;28;20465;-67
2023/05/01 12:25:42;;;;;;;4.90;3.47;;;27.90;22.00;;;;;;5076521;28;20519;-68
2023/05/01 12:28:11;;;;;;;6.73;4.30;;;28.40;21.20;;;;;;5076494;28;20492;-67
2023/05/01 12:30:40;;;;;;;3.70;3.40;;;28.60;20.30;;;;;;5075812;28;20466;-67
2023/05/01 12:33:09;;;;;;;6.07;4.50;;;28.50;20.40;;;;;;5075708;28;20454;-67
2023/05/01 12:35:36;;;;;;;6.03;4.53;;;28.20;19.70;;;;;;5076324;28;20575;-67
2023/05/01 12:38:11;;;;;;;4.80;3.90;;;27.60;19.90;;;;;;5076098;28;20510;-67
2023/05/01 12:40:39;;;;;;;4.90;4.37;;;27.60;21.10;;;;;;5076144;28;20537;-67
2023/05/01 12:43:06;;;;;;;5.77;3.50;;;27.70;20.60;;;;;;5076242;28;20454;-67
2023/05/01 12:45:40;;;;;;;4.50;4.00;;;27.60;20.10;;;;;;5076101;28;20462;-67
2023/05/01 12:48:13;;;;;;;7.77;3.77;;;27.50;20.30;;;;;;5075672;28;20466;-67
2023/05/01 12:50:41;;;;;;;6.30;4.03;;;27.10;20.50;;;;;;5076313;28;20745;-67
2023/05/01 12:53:09;;;;;;;4.97;3.80;;;26.80;21.00;;;;;;5076009;28;20480;-67
2023/05/01 12:55:46;;;;;;;5.90;3.53;;;26.40;20.80;;;;;;5075583;28;20457;-67
2023/05/01 12:58:13;;;;;;;5.17;3.77;;;26.30;21.40;;;;;;5075585;28;20457;-67
2023/05/01 13:00:51;;;;;;;5.10;4.00;;;25.80;21.10;;;;;;5075701;28;20528;-67